• Join FlightAware (Why Join?)
  • Login
  • US Flag 
09:22AM EDT


 

Airport Tracker/Info


-or-


 

Live Flight TrackerFlight Track Log ✈ DAL268 ✈ 30-Sep-2013 ✈ KSFO - KJFK

Flight Track Log - Related Links

Times and Time Zones

All times are in EDT time to prevent confusion due to time zone crossing. See the DAL268 flight status page for this flight to view local times or setup timezone preferences in your user account.

Time Position Orientation Groundspeed Altitude Reporting Facility
EDT Latitude Longitude Course Direction KTS MPH feet Rate Location/Type
02:22PM 37.6060 -122.3820 142° Southeast  Level FlightAware
02:25PM 37.6325 -122.3630 29° Northeast 168 193 600 300 Climbing FlightAware ADS-B
02:25PM 37.6400 -122.3550 40° Northeast 174 200 1,100 2,400 Climbing FlightAware ADS-B
02:25PM 37.6454 -122.3470 50° Northeast 177 204 1,500 1,800 Climbing FlightAware ADS-B
02:26PM 37.6539 -122.3340 50° Northeast 198 228 1,900 1,500 Climbing FlightAware ADS-B
02:26PM 37.6613 -122.3230 50° Northeast 215 247 2,200 1,560 Climbing FlightAware ADS-B
02:26PM 37.6708 -122.3090 49° Northeast 232 267 2,600 1,380 Climbing FlightAware ADS-B
02:26PM 37.6793 -122.2960 50° Northeast 255 293 2,800 1,740 Climbing FlightAware ADS-B
02:27PM 37.6914 -122.2780 50° Northeast 269 310 3,400 3,000 Climbing FlightAware ADS-B
02:27PM 37.7019 -122.2620 50° Northeast 269 310 4,200 3,300 Climbing FlightAware ADS-B
02:27PM 37.7211 -122.2310 52° Northeast 275 316 5,500 3,180 Climbing FlightAware ADS-B
02:27PM 37.7357 -122.2120 46° Northeast 275 316 6,400 3,240 Climbing FlightAware ADS-B
02:28PM 37.7408 -122.2060 43° Northeast 278 320 6,700 2,460 Climbing FlightAware ADS-B
02:28PM 37.7522 -122.1940 40° Northeast 287 330 7,100 2,640 Climbing FlightAware ADS-B
02:28PM 37.7718 -122.1760 36° Northeast 292 336 8,000 2,880 Climbing FlightAware ADS-B
02:28PM 37.7902 -122.1590 36° Northeast 297 342 8,800 2,760 Climbing FlightAware ADS-B
02:29PM 37.8074 -122.1430 36° Northeast 300 345 9,500 2,400 Climbing FlightAware ADS-B
02:29PM 37.8437 -122.1090 36° Northeast 319 367 10,700 1,620 Climbing FlightAware ADS-B
02:30PM 37.8825 -122.0740 35° Northeast 357 411 11,200 1,200 Climbing FlightAware ADS-B
02:30PM 37.9244 -122.0350 36° Northeast 390 449 11,900 1,380 Climbing FlightAware ADS-B
02:31PM 37.9813 -121.9820 36° Northeast 418 481 12,800 1,800 Climbing FlightAware ADS-B
02:31PM 38.0533 -121.9160 36° Northeast 435 501 14,400 2,040 Climbing FlightAware ADS-B
02:32PM 38.1140 -121.8600 36° Northeast 442 509 15,700 1,920 Climbing FlightAware
02:33PM 38.1780 -121.8010 36° Northeast 452 520 16,900 1,680 Climbing FlightAware
02:33PM 38.2320 -121.7500 37° Northeast 463 533 17,700 1,500 Climbing FlightAware
02:34PM 38.2950 -121.6910 36° Northeast 474 545 18,600 1,500 Climbing FlightAware
02:34PM 38.3590 -121.6310 36° Northeast 481 554 19,500 1,560 Climbing FlightAware
02:35PM 38.4150 -121.5770 37° Northeast 487 560 20,400 1,620 Climbing FlightAware
02:36PM 38.4720 -121.5020 46° Northeast 499 574 21,400 1,500 Climbing FlightAware
02:36PM 38.5260 -121.4130 52° Northeast 509 586 22,200 1,260 Climbing FlightAware
02:37PM 38.5700 -121.3360 54° Northeast 515 593 22,900 1,260 Climbing FlightAware
02:37PM 38.5916 -121.2990 53° Northeast 515 593 23,200 1,380 Climbing FlightAware ADS-B
02:38PM 38.6760 -121.1530 53° Northeast 522 601 24,600 1,320 Climbing FlightAware
02:39PM 38.7270 -121.0640 54° Northeast 527 606 25,300 1,140 Climbing FlightAware
02:39PM 38.7790 -120.9730 54° Northeast 531 611 26,000 1,380 Climbing FlightAware
02:40PM 38.8260 -120.8920 53° Northeast 527 606 26,900 1,620 Climbing FlightAware
02:40PM 38.8760 -120.8060 53° Northeast 523 602 27,900 1,500 Climbing FlightAware
02:41PM 38.9280 -120.7160 53° Northeast 523 602 28,700 1,380 Climbing FlightAware
02:41PM 38.8859 -120.7884 233° Southwest 523 602 29,300 1,560 Climbing FlightAware ADS-B (KAHC)
02:42PM 39.0045 -120.5838 53° Northeast 520 598 30,200 1,620 Climbing FlightAware ADS-B (KAHC)
02:42PM 39.0513 -120.5025 53° Northeast 516 594 31,000 1,500 Climbing FlightAware ADS-B (KAHC)
02:43PM 39.1033 -120.4118 54° Northeast 511 588 31,900 1,500 Climbing FlightAware ADS-B (KAHC)
02:43PM 39.1460 -120.3373 54° Northeast 506 582 32,700 1,560 Climbing FlightAware ADS-B (KAHC)
02:44PM 39.1882 -120.2634 54° Northeast 502 578 33,600 1,500 Climbing FlightAware ADS-B (KAHC)
02:45PM 39.2454 -120.1630 54° Northeast 501 577 34,500 1,260 Climbing FlightAware ADS-B (KAHC)
02:45PM 39.2877 -120.0885 54° Northeast 500 575 35,100 660 Climbing FlightAware ADS-B (KAHC)
02:46PM 39.3304 -120.0132 54° Northeast 509 586 35,200 360 Climbing FlightAware ADS-B (KAHC)
02:46PM 39.3798 -119.9257 54° Northeast 514 592 35,500 900 Climbing FlightAware ADS-B (KAHC)
02:47PM 39.4217 -119.8513 54° Northeast 508 585 36,200 1,020 Climbing FlightAware ADS-B (KAHC)
02:47PM 39.4842 -119.7399 54° Northeast 511 588 36,800 600 Climbing FlightAware ADS-B (KAHC)
02:48PM 39.5272 -119.6631 54° Northeast 514 592 37,000 120 Climbing FlightAware ADS-B (KAHC)
02:49PM 39.6044 -119.5250 54° Northeast 514 592 37,000  Level FlightAware ADS-B (KAHC)
02:49PM 39.6477 -119.4473 54° Northeast 518 596 37,000  Level FlightAware ADS-B (KAHC)
02:50PM 39.7050 -119.3440 54° Northeast 514 592 37,000  Level FlightAware
02:51PM 39.7590 -119.2470 54° Northeast 513 590 37,000  Level FlightAware
02:51PM 39.8080 -119.1580 54° Northeast 512 589 37,000  Level FlightAware
02:52PM 39.8520 -119.0780 54° Northeast 513 590 37,000  Level FlightAware
02:53PM 39.9030 -118.9850 54° Northeast 519 597 37,000  Level FlightAware
02:53PM 39.9540 -118.8920 54° Northeast 522 601 37,000  Level FlightAware
02:54PM 40.0075 -118.7942 54° Northeast 522 601 37,000  Level FlightAware ADS-B (KAHC)
02:54PM 40.0498 -118.7166 55° Northeast 522 601 37,000  Level FlightAware ADS-B (KAHC)
02:55PM 40.0980 -118.6270 55° Northeast 524 603 37,000  Level FlightAware
02:55PM 40.1381 -118.5276 62° Northeast 528 608 37,000  Level FlightAware ADS-B (KAHC)
02:56PM 40.1690 -118.4230 69° East 527 606 37,000  Level FlightAware
02:56PM 40.1829 -118.3716 71° East 530 610 37,000  Level FlightAware ADS-B (KAHC)
02:57PM 40.2067 -118.2839 70° East 530 610 37,000  Level FlightAware ADS-B (KAHC)
02:57PM 40.2393 -118.1632 70° East 530 610 37,000  Level FlightAware ADS-B (KAHC)
02:58PM 40.2637 -118.0726 70° East 527 606 37,000  Level FlightAware ADS-B (KAHC)
02:58PM 40.2895 -117.9773 70° East 531 611 37,000  Level FlightAware ADS-B (KAHC)
02:59PM 40.3165 -117.8771 71° East 531 611 37,000  Level FlightAware ADS-B (KAHC)
03:00PM 40.3476 -117.7615 71° East 531 611 37,000  Level FlightAware ADS-B (KAHC)
03:00PM 40.3764 -117.6540 71° East 532 612 37,000  Level FlightAware ADS-B (KAHC)
03:01PM 40.3940 -117.5970 68° East 531 611 37,000  Level FlightAware
03:01PM 40.4247 -117.4726 72° East 533 613 37,000  Level FlightAware ADS-B (KAHC)
03:02PM 40.4450 -117.4110 67° East 531 611 37,000  Level FlightAware
03:03PM 40.4710 -117.3180 70° East 531 611 37,000  Level FlightAware
03:03PM 40.4970 -117.2260 70° East 531 611 37,000  Level FlightAware
03:04PM 40.5220 -117.1330 70° East 531 611 37,000  Level FlightAware
03:04PM 40.5480 -117.0400 70° East 531 611 37,000  Level FlightAware
03:05PM 40.5740 -116.9440 70° East 531 611 37,000  Level FlightAware
03:06PM 40.6010 -116.8490 69° East 531 611 37,000  Level FlightAware
03:06PM 40.6270 -116.7560 70° East 531 611 37,000  Level FlightAware
03:07PM 40.6520 -116.6650 70° East 531 611 37,000  Level FlightAware
03:07PM 40.6770 -116.5720 70° East 531 611 37,000  Level FlightAware
03:08PM 40.7040 -116.4760 70° East 531 611 37,000  Level FlightAware
03:09PM 40.6185 -116.0950 106° East 537 618 37,000  Level FlightAware ADS-B
03:09PM 40.6244 -115.9900 86° East 539 620 37,000  Level FlightAware ADS-B
03:10PM 40.6298 -115.8910 86° East 539 620 37,000  Level FlightAware ADS-B
03:10PM 40.6352 -115.7910 86° East 540 621 37,000  Level FlightAware ADS-B
03:11PM 40.6408 -115.6870 86° East 544 626 37,000  Level FlightAware ADS-B
03:12PM 40.6536 -115.4400 86° East 541 623 37,000  Level FlightAware ADS-B
03:12PM 40.6586 -115.3410 86° East 540 621 37,000  Level FlightAware ADS-B
03:13PM 40.6634 -115.2420 86° East 542 624 37,000  Level FlightAware ADS-B
03:13PM 40.6657 -115.1948 86° East 543 625 37,000  Level FlightAware ADS-B
03:13PM 40.6683 -115.1420 86° East 543 625 37,000  Level FlightAware ADS-B
03:14PM 40.6710 -115.0836 86° East 541 623 37,000  Level FlightAware ADS-B
03:14PM 40.6730 -115.0430 86° East 540 621 37,000  Level FlightAware ADS-B
03:14PM 40.6755 -114.9883 87° East 539 620 37,000  Level FlightAware ADS-B
03:14PM 40.6776 -114.9430 86° East 541 623 37,000  Level FlightAware ADS-B
03:15PM 40.6813 -114.8627 87° East 543 625 37,000  Level FlightAware ADS-B
03:15PM 40.6823 -114.8390 87° East 542 624 37,000  Level FlightAware ADS-B
03:15PM 40.6871 -114.7330 87° East 537 618 37,000  Level FlightAware ADS-B
03:16PM 40.6892 -114.6842 87° East 540 621 37,000  Level FlightAware ADS-B
03:16PM 40.6915 -114.6330 87° East 543 625 37,000  Level FlightAware ADS-B
03:16PM 40.6957 -114.5340 87° East 536 617 37,000 120 Level FlightAware ADS-B
03:17PM 40.6978 -114.4848 87° East 540 621 37,100  Climbing FlightAware ADS-B
03:17PM 40.6998 -114.4350 87° East 543 625 37,000 -360 Descending FlightAware ADS-B
03:17PM 40.7022 -114.3773 87° East 540 621 36,900  Descending FlightAware ADS-B
03:17PM 40.7039 -114.3370 87° East 536 617 37,000 120 Climbing FlightAware ADS-B
03:18PM 40.7076 -114.2469 87° East 539 620 37,000  Level FlightAware ADS-B
03:18PM 40.7120 -114.1340 87° East 540 621 37,000  Level FlightAware ADS-B
03:19PM 40.7140 -114.0832 87° East 540 621 37,000  Level FlightAware ADS-B
03:19PM 40.7158 -114.0350 87° East 541 623 37,000  Level FlightAware ADS-B
03:19PM 40.7175 -113.9916 87° East 540 621 37,000  Level FlightAware ADS-B
03:20PM 40.7196 -113.9350 87° East 540 621 37,000  Level FlightAware ADS-B
03:20PM 40.7228 -113.8497 87° East 541 623 37,000  Level FlightAware ADS-B
03:20PM 40.7233 -113.8350 87° East 541 623 37,000  Level FlightAware ADS-B
03:20PM 40.7277 -113.7470 86° East 538 619 37,000  Level FlightAware ADS-B
03:21PM 40.7289 -113.7270 85° East 538 619 37,000  Level FlightAware ADS-B
03:21PM 40.7350 -113.6425 85° East 536 617 37,000  Level FlightAware ADS-B
03:21PM 40.7360 -113.6280 85° East 536 617 37,000  Level FlightAware ADS-B
03:22PM 40.7458 -113.4990 84° East 538 619 37,000  Level FlightAware ADS-B
03:22PM 40.7478 -113.4715 84° East 541 623 37,000  Level FlightAware ADS-B
03:22PM 40.7531 -113.4020 84° East 539 620 37,000  Level FlightAware ADS-B
03:23PM 40.7574 -113.3452 84° East 539 620 37,000  Level FlightAware ADS-B
03:23PM 40.7623 -113.2790 84° East 542 624 37,000  Level FlightAware ADS-B
03:23PM 40.7648 -113.2446 84° East 544 626 37,000  Level FlightAware ADS-B
03:23PM 40.7716 -113.1520 84° East 542 624 37,000  Level FlightAware ADS-B
03:24PM 40.7724 -113.1408 85° East 542 624 37,000  Level FlightAware ADS-B
03:24PM 40.7787 -113.0530 85° East 541 623 37,000  Level FlightAware ADS-B
03:24PM 40.7804 -113.0297 85° East 541 623 37,000  Level FlightAware ADS-B
03:25PM 40.7861 -112.9480 85° East 545 627 37,000  Level FlightAware ADS-B
03:25PM 40.7866 -112.9418 84° East 546 628 37,000  Level FlightAware ADS-B
03:25PM 40.7931 -112.8490 85° East 544 626 37,000  Level FlightAware ADS-B
03:25PM 40.7966 -112.7986 85° East 543 625 37,000  Level FlightAware ADS-B
03:26PM 40.8001 -112.7480 85° East 544 626 37,000  Level FlightAware ADS-B
03:26PM 40.8070 -112.6460 85° East 543 625 37,000  Level FlightAware ADS-B
03:26PM 40.8100 -112.6033 85° East 542 624 37,000  Level FlightAware ADS-B
03:27PM 40.8138 -112.5460 85° East 541 623 37,000  Level FlightAware ADS-B
03:27PM 40.8204 -112.4470 85° East 539 620 37,000  Level FlightAware ADS-B
03:27PM 40.8206 -112.4430 86° East 539 620 37,000  Level FlightAware ADS-B
03:28PM 40.8266 -112.3524 85° East 542 624 37,000  Level FlightAware ADS-B
03:28PM 40.8338 -112.2410 85° East 545 627 37,000  Level FlightAware ADS-B
03:28PM 40.8340 -112.2383 85° East 545 627 37,000  Level FlightAware ADS-B
03:29PM 40.8403 -112.1400 85° East 540 621 37,000  Level FlightAware ADS-B
03:29PM 40.8417 -112.1176 85° East 538 619 37,000  Level FlightAware ADS-B
03:29PM 40.8455 -112.0600 85° East 538 619 37,000  Level FlightAware ADS-B
03:29PM 40.8521 -111.9990 82° East 541 623 37,000  Level FlightAware ADS-B
03:29PM 40.8521 -111.9991 318° Northwest 541 623 37,000  Level FlightAware ADS-B
03:30PM 40.8592 -111.9570 77° East 542 624 37,000  Level FlightAware ADS-B
03:30PM 40.8711 -111.9037 74° East 541 623 37,000  Level FlightAware ADS-B
03:30PM 40.8820 -111.8600 72° East 542 624 37,000  Level FlightAware ADS-B
03:31PM 40.9092 -111.7550 71° East 538 619 37,000  Level FlightAware ADS-B
03:31PM 40.9222 -111.7065 70° East 535 616 37,000 180 Level FlightAware ADS-B
03:31PM 40.9345 -111.6600 71° East 536 617 37,100  Climbing FlightAware ADS-B
03:32PM 40.9546 -111.5843 71° East 542 624 37,000 -420 Descending FlightAware ADS-B
03:32PM 40.9604 -111.5620 71° East 542 624 36,900  Descending FlightAware ADS-B
03:32PM 40.9886 -111.4540 71° East 533 613 37,000 60 Climbing FlightAware ADS-B
03:33PM 41.0028 -111.3998 71° East 534 615 37,000  Level FlightAware ADS-B
03:33PM 41.0126 -111.3620 71° East 534 615 37,000  Level FlightAware ADS-B
03:33PM 41.0366 -111.2690 71° East 536 617 37,000  Level FlightAware ADS-B
03:34PM 41.0613 -111.1730 71° East 535 616 37,000  Level FlightAware ADS-B
03:34PM 41.0850 -111.0810 71° East 534 615 37,000  Level FlightAware ADS-B
03:35PM 41.1091 -110.9860 71° East 535 616 37,000  Level FlightAware ADS-B
03:35PM 41.1333 -110.8910 71° East 537 618 37,000  Level FlightAware ADS-B
03:36PM 41.1569 -110.7970 72° East 533 613 37,000  Level FlightAware ADS-B
03:36PM 41.1863 -110.6800 72° East 531 611 37,000  Level FlightAware ADS-B
03:37PM 41.2097 -110.5870 71° East 533 613 37,000  Level FlightAware ADS-B
03:37PM 41.2330 -110.4940 72° East 532 612 37,000  Level FlightAware ADS-B
03:38PM 41.2650 -110.3790 70° East 531 611 37,000  Level FlightAware
03:39PM 41.2890 -110.2840 71° East 531 611 37,000  Level FlightAware
03:40PM 41.3330 -110.0890 73° East 534 615 37,000  Level FlightAware
03:40PM 41.3580 -109.9870 72° East 534 615 37,000  Level FlightAware
03:41PM 41.3840 -109.8790 72° East 536 617 37,000  Level FlightAware
03:41PM 41.4110 -109.7690 72° East 535 616 37,000  Level FlightAware
03:42PM 41.4390 -109.6540 72° East 536 617 37,000  Level FlightAware
03:43PM 41.4650 -109.5430 73° East 539 620 37,000  Level FlightAware
03:43PM 41.4900 -109.4400 72° East 538 619 37,000  Level FlightAware
03:44PM 41.5170 -109.3270 72° East 538 619 37,000  Level FlightAware
03:44PM 41.5410 -109.2250 73° East 538 619 37,000  Level FlightAware
03:45PM 41.5670 -109.1160 72° East 538 619 37,000  Level FlightAware
03:45PM 41.5900 -108.9920 76° East 539 620 37,000  Level FlightAware
03:46PM 41.6020 -108.8750 82° East 538 619 37,000  Level FlightAware
03:47PM 41.6110 -108.7560 84° East 537 618 37,000  Level FlightAware
03:47PM 41.6190 -108.6530 84° East 538 619 37,000  Level FlightAware
03:48PM 41.6280 -108.5320 84° East 539 620 37,000  Level FlightAware
03:48PM 41.6350 -108.4320 85° East 539 620 37,000  Level FlightAware
03:49PM 41.6450 -108.2950 84° East 539 620 37,000  Level FlightAware
03:50PM 41.6540 -108.1740 84° East 539 620 37,000  Level FlightAware
03:50PM 41.6610 -108.0690 85° East 538 619 37,000  Level FlightAware
03:51PM 41.6680 -107.9680 85° East 539 620 37,000  Level FlightAware
03:51PM 41.6780 -107.8360 84° East 538 619 37,000  Level FlightAware
03:52PM 41.6860 -107.7160 85° East 537 618 37,000  Level FlightAware
03:52PM 41.6940 -107.6010 85° East 537 618 37,000  Level FlightAware
03:53PM 41.7010 -107.4930 85° East 535 616 37,000  Level FlightAware
03:54PM 41.7080 -107.3740 85° East 536 617 37,000  Level FlightAware
03:54PM 41.7170 -107.2480 84° East 532 612 37,000  Level FlightAware
03:55PM 41.7230 -107.1480 85° East 532 612 37,000  Level FlightAware
03:55PM 41.7310 -107.0310 85° East 532 612 37,000  Level FlightAware
03:56PM 41.7370 -106.9300 85° East 532 612 37,000  Level FlightAware
03:57PM 41.7440 -106.8290 85° East 532 612 37,000  Level FlightAware
03:57PM 41.7500 -106.7290 85° East 532 612 37,000  Level FlightAware
03:58PM 41.7570 -106.6280 85° East 532 612 37,000  Level FlightAware
03:58PM 41.7650 -106.4460 87° East 527 606 37,000  Level FlightAware
03:59PM 41.7710 -106.3420 86° East 529 609 37,000  Level FlightAware
03:59PM 41.7770 -106.2240 86° East 526 605 37,000  Level FlightAware
04:00PM 41.7840 -106.1060 85° East 527 606 37,000  Level FlightAware
04:01PM 41.7900 -105.9890 86° East 528 608 37,000  Level FlightAware
04:01PM 41.7970 -105.8670 86° East 527 606 37,000  Level FlightAware
04:02PM 41.8030 -105.7410 86° East 526 605 37,000  Level FlightAware
04:02PM 41.8080 -105.6380 86° East 523 602 37,000  Level FlightAware
04:03PM 41.8140 -105.5100 86° East 524 603 37,000  Level FlightAware
04:04PM 41.8190 -105.4040 86° East 521 600 37,000  Level FlightAware
04:04PM 41.8250 -105.2850 86° East 523 602 37,000  Level FlightAware
04:05PM 41.8290 -105.1940 87° East 523 602 37,000  Level FlightAware
04:05PM 41.8350 -105.0690 86° East 526 605 37,000  Level FlightAware
04:06PM 41.8400 -104.9470 87° East 529 609 37,000  Level FlightAware
04:07PM 41.8450 -104.8270 87° East 531 611 37,000  Level FlightAware
04:07PM 41.8490 -104.7220 87° East 532 612 37,000  Level FlightAware
04:08PM 41.8540 -104.6070 87° East 537 618 37,000  Level FlightAware
04:08PM 41.8590 -104.4880 87° East 541 623 37,000  Level FlightAware
04:09PM 41.8640 -104.3520 87° East 540 621 37,000  Level FlightAware
04:10PM 41.8690 -104.2230 87° East 542 624 37,000  Level FlightAware
04:10PM 41.8730 -104.1130 87° East 545 627 37,000  Level FlightAware
04:11PM 41.8780 -103.9650 87° East 546 628 37,000  Level FlightAware
04:11PM 41.8800 -103.9080 87° East 545 627 37,000  Level FlightAware
04:12PM 41.8880 -103.6880 87° East 543 625 37,000  Level FlightAware
04:13PM 41.8920 -103.5670 87° East 543 625 37,000  Level FlightAware
04:13PM 41.9000 -103.4470 85° East 544 626 37,000  Level FlightAware
04:14PM 41.9140 -103.3390 80° East 544 626 37,000  Level FlightAware
04:15PM 41.9270 -103.2370 80° East 544 626 37,000  Level FlightAware
04:15PM 41.9410 -103.1350 80° East 544 626 37,000  Level FlightAware
04:16PM 41.9540 -103.0330 80° East 544 626 37,000  Level FlightAware
04:17PM 41.9680 -102.9310 80° East 544 626 37,000  Level FlightAware
04:17PM 41.9810 -102.8260 81° East 544 626 37,000  Level FlightAware
04:18PM 41.9950 -102.7240 80° East 544 626 37,000  Level FlightAware
04:18PM 42.0080 -102.6220 80° East 544 626 37,000  Level FlightAware
04:19PM 42.0210 -102.5200 80° East 544 626 37,000  Level FlightAware
04:20PM 42.0350 -102.4180 79° East 544 626 37,000  Level FlightAware
04:20PM 42.0480 -102.3130 81° East 544 626 37,000  Level FlightAware
04:21PM 42.0620 -102.2110 79° East 544 626 37,000  Level FlightAware
04:21PM 42.0760 -102.1060 80° East 544 626 37,000  Level FlightAware
04:22PM 42.0890 -102.0060 80° East 544 626 37,000  Level FlightAware
04:23PM 42.1030 -101.8980 80° East 544 626 37,000  Level FlightAware
04:23PM 42.1150 -101.8020 80° East 544 626 37,000  Level FlightAware
04:25PM 42.1822 -101.3153 80° East 532 612 37,000  Level Denver Center
04:26PM 42.2081 -101.0961 81° East 532 612 37,000  Level Denver Center
04:27PM 42.2303 -100.9075 81° East 531 611 37,000  Level Denver Center
04:28PM 42.2556 -100.6881 81° East 530 610 37,000  Level Denver Center
04:34PM 42.3902 -99.4753 81° East 538 619 37,000  Level FlightAware ADS-B
04:35PM 42.4002 -99.3793 82° East 537 618 37,000  Level FlightAware ADS-B
04:36PM 42.4332 -99.0593 82° East 536 617 37,000  Level FlightAware ADS-B
04:37PM 42.4593 -98.8004 82° East 535 616 37,000  Level FlightAware ADS-B
04:38PM 42.4689 -98.6926 83° East 535 616 37,000  Level FlightAware ADS-B
04:42PM 42.5123 -97.8048 86° East 531 611 37,000  Level FlightAware ADS-B
04:43PM 42.5230 -97.5430 87° East 528 608 37,000  Level FlightAware
04:44PM 42.5270 -97.4560 86° East 530 610 37,000  Level FlightAware ADS-B
04:45PM 42.5330 -97.3130 87° East 529 609 37,000  Level FlightAware
04:45PM 42.5370 -97.2060 87° East 529 609 37,000  Level FlightAware
04:45PM 42.5399 -97.1246 87° East 530 610 37,000  Level FlightAware ADS-B
04:46PM 42.5460 -96.9580 87° East 528 608 37,000  Level FlightAware
04:47PM 42.5500 -96.8340 87° East 528 608 37,000  Level FlightAware
04:47PM 42.5540 -96.7230 87° East 528 608 37,000  Level FlightAware
04:48PM 42.5580 -96.6150 87° East 528 608 37,000  Level FlightAware
04:49PM 42.5620 -96.4900 87° East 528 608 37,000  Level FlightAware
04:49PM 42.5650 -96.3850 88° East 528 608 37,000  Level FlightAware
04:50PM 42.5690 -96.2700 87° East 528 608 37,000  Level FlightAware
04:50PM 42.5730 -96.1440 87° East 527 606 37,000  Level FlightAware
04:51PM 42.5760 -96.0250 88° East 528 608 37,000  Level FlightAware
04:52PM 42.5790 -95.9060 88° East 530 610 37,000  Level FlightAware
04:52PM 42.5820 -95.7960 88° East 530 610 37,000  Level FlightAware
04:53PM 42.5851 -95.6758 88° East 530 610 37,000  Level FlightAware ADS-B
04:53PM 42.5880 -95.5650 88° East 530 610 37,000  Level FlightAware
04:54PM 42.5910 -95.4460 88° East 530 610 37,000  Level FlightAware
04:54PM 42.5925 -95.3613 89° East 530 610 37,000  Level FlightAware ADS-B
04:54PM 42.5925 -95.3596 90° East 530 610 37,000  Level FlightAware ADS-B
04:55PM 42.5948 -95.2549 88° East 530 610 37,000  Level FlightAware ADS-B
04:55PM 42.5949 -95.2480 89° East 530 610 37,000  Level FlightAware ADS-B
04:55PM 42.5968 -95.1560 88° East 529 609 37,000  Level FlightAware ADS-B
04:55PM 42.5970 -95.1477 88° East 528 608 37,000  Level FlightAware ADS-B
04:56PM 42.5991 -95.0419 88° East 529 609 37,000  Level FlightAware ADS-B
04:56PM 42.5978 -95.1110 269° West 528 608 37,000  Level FlightAware ADS-B
04:56PM 42.6010 -94.9434 88° East 528 608 37,000  Level FlightAware ADS-B
04:57PM 42.6039 -94.7808 89° East 528 608 37,000  Level FlightAware ADS-B
04:57PM 42.6043 -94.7560 89° East 529 609 37,000  Level FlightAware ADS-B
04:58PM 42.6060 -94.6410 89° East 528 608 37,000  Level FlightAware
04:59PM 42.6080 -94.5260 89° East 528 608 37,000  Level FlightAware
04:59PM 42.6088 -94.4606 89° East 528 608 37,000  Level FlightAware ADS-B
04:59PM 42.6096 -94.4107 89° East 528 608 37,000  Level FlightAware ADS-B
05:00PM 42.6110 -94.2900 89° East 528 608 37,000  Level FlightAware
05:00PM 42.6115 -94.2568 89° East 528 608 37,000  Level FlightAware ADS-B
05:01PM 42.6130 -94.0600 89° East 528 608 37,000  Level FlightAware
05:01PM 42.6134 -94.0323 89° East 529 609 37,000  Level FlightAware ADS-B
05:02PM 42.6141 -93.9330 89° East 529 609 37,000  Level FlightAware ADS-B
05:02PM 42.6142 -93.9092 90° East 529 609 37,000  Level FlightAware ADS-B
05:03PM 42.6150 -93.7190 90° East 529 609 37,000  Level FlightAware
05:03PM 42.6160 -93.6010 89° East 528 608 37,000  Level FlightAware
05:04PM 42.6160 -93.4960 90° East 528 608 37,000  Level FlightAware
05:04PM 42.6162 -93.4717 89° East 528 608 37,000  Level FlightAware ADS-B
05:04PM 42.6160 -93.3710 90° East 528 608 37,000  Level FlightAware
05:05PM 42.6166 -93.2715 90° East 527 606 37,000  Level FlightAware ADS-B
05:06PM 42.6170 -93.1530 90° East 527 606 37,000  Level FlightAware
05:06PM 42.6170 -93.0300 90° East 527 606 37,000  Level FlightAware
05:07PM 42.6160 -92.9130 91° East 526 605 37,000  Level FlightAware
05:07PM 42.6160 -92.8050 90° East 526 605 37,000  Level FlightAware
05:08PM 42.6160 -92.6840 90° East 525 604 37,000  Level FlightAware
05:08PM 42.6153 -92.6000 91° East 525 604 37,000  Level FlightAware ADS-B
05:09PM 42.6145 -92.4592 90° East 524 603 37,000  Level FlightAware ADS-B
05:10PM 42.6136 -92.3276 90° East 525 604 37,000  Level FlightAware ADS-B
05:10PM 42.6130 -92.2180 90° East 525 604 37,000  Level FlightAware
05:11PM 42.6110 -92.0700 91° East 524 603 37,000  Level FlightAware
05:11PM 42.6109 -92.0157 90° East 524 603 37,000  Level FlightAware ADS-B
05:12PM 42.6091 -91.8504 91° East 524 603 37,000  Level FlightAware ADS-B
05:13PM 42.6080 -91.7621 91° East 524 603 37,000  Level FlightAware ADS-B
05:13PM 42.6065 -91.6378 91° East 524 603 37,000  Level FlightAware ADS-B
05:14PM 42.6046 -91.5065 91° East 525 604 37,000  Level FlightAware ADS-B
05:14PM 42.6029 -91.3884 91° East 524 603 37,000 300 Level FlightAware ADS-B
05:15PM 42.6012 -91.2835 91° East 524 603 37,400 840 Climbing FlightAware ADS-B
05:15PM 42.5995 -91.1833 91° East 522 601 37,900 900 Climbing FlightAware ADS-B
05:16PM 42.5972 -91.0521 91° East 521 600 38,500 780 Climbing FlightAware ADS-B
05:17PM 42.5950 -90.9520 92° East 520 598 38,900 660 Climbing FlightAware
05:17PM 42.5946 -90.9173 91° East 520 598 39,000 120 Climbing FlightAware ADS-B
05:17PM 42.5930 -90.8367 92° East 517 595 39,000  Level FlightAware ADS-B
05:18PM 42.5907 -90.7276 92° East 516 594 39,000  Level FlightAware ADS-B
05:18PM 42.5880 -90.6110 92° East 517 595 39,000  Level FlightAware
05:19PM 42.5850 -90.4910 92° East 519 597 39,000  Level FlightAware
05:20PM 42.5830 -90.3840 91° East 520 598 39,000  Level FlightAware
05:20PM 42.5800 -90.2660 92° East 520 598 39,000  Level FlightAware
05:21PM 42.5770 -90.1450 92° East 520 598 39,000  Level FlightAware
05:21PM 42.5740 -90.0310 92° East 520 598 39,000  Level FlightAware
05:22PM 42.5710 -89.9350 92° East 519 597 39,000  Level FlightAware
05:23PM 42.5670 -89.8060 92° East 520 598 39,000  Level FlightAware
05:23PM 42.5640 -89.6870 92° East 519 597 39,000  Level FlightAware
05:24PM 42.5610 -89.5880 92° East 518 596 39,000  Level FlightAware
05:24PM 42.5570 -89.4690 93° East 518 596 39,000  Level FlightAware
05:25PM 42.5530 -89.3520 93° East 517 595 39,000  Level FlightAware
05:25PM 42.5500 -89.2520 92° East 516 594 39,000  Level FlightAware
05:26PM 42.5450 -89.1270 93° East 516 594 39,000  Level FlightAware
05:27PM 42.5410 -89.0170 93° East 516 594 39,000  Level FlightAware
05:27PM 42.5370 -88.8970 93° East 517 595 39,000  Level FlightAware
05:28PM 42.5330 -88.7920 93° East 517 595 39,000  Level FlightAware
05:28PM 42.5290 -88.6800 93° East 516 594 39,000  Level FlightAware
05:29PM 42.5250 -88.5740 93° East 515 593 39,000  Level FlightAware
05:30PM 42.5200 -88.4500 93° East 514 592 39,000  Level FlightAware
05:30PM 42.5150 -88.3460 94° East 513 590 39,000  Level FlightAware
05:31PM 42.5100 -88.2310 93° East 513 590 39,000  Level FlightAware
05:31PM 42.5050 -88.1160 93° East 511 588 39,000  Level FlightAware
05:32PM 42.5010 -88.0000 93° East 509 586 39,000  Level FlightAware
05:32PM 42.5000 -87.8970 91° East 507 583 39,000  Level FlightAware
05:33PM 42.5000 -87.7940 90° East 507 583 39,000  Level FlightAware
05:34PM 42.5000 -87.6760 90° East 508 585 39,000  Level FlightAware
05:34PM 42.4990 -87.5730 91° East 507 583 39,000  Level FlightAware
05:35PM 42.4990 -87.4500 90° East 508 585 39,000  Level FlightAware
05:35PM 42.4980 -87.3330 91° East 507 583 39,000  Level FlightAware
05:36PM 42.4980 -87.2360 90° East 507 583 39,000  Level FlightAware
05:37PM 42.4970 -87.1240 91° East 507 583 39,000  Level FlightAware
05:37PM 42.4960 -87.0130 91° East 507 583 39,000  Level FlightAware
05:38PM 42.4950 -86.9050 91° East 507 583 39,000  Level FlightAware
05:38PM 42.4940 -86.7840 91° East 508 585 39,000  Level FlightAware
05:39PM 42.4930 -86.6790 91° East 508 585 39,000  Level FlightAware
05:39PM 42.4920 -86.5670 91° East 507 583 39,000  Level FlightAware
05:40PM 42.4900 -86.4450 91° East 507 583 39,000  Level FlightAware
05:41PM 42.4890 -86.3560 91° East 507 583 39,000  Level FlightAware
05:41PM 42.4870 -86.2320 91° East 508 585 39,000  Level FlightAware
05:42PM 42.4850 -86.1170 91° East 507 583 39,000  Level FlightAware
05:42PM 42.4830 -86.0190 92° East 507 583 39,000  Level FlightAware
05:43PM 42.4810 -85.9050 91° East 506 582 39,000  Level FlightAware
05:44PM 42.4790 -85.7680 91° East 506 582 39,000  Level FlightAware
05:44PM 42.4770 -85.6590 91° East 505 581 39,000  Level FlightAware
05:45PM 42.4750 -85.5470 91° East 504 580 39,000  Level FlightAware
05:45PM 42.4720 -85.4460 92° East 504 580 39,000  Level FlightAware
05:46PM 42.4700 -85.3420 91° East 503 579 39,000  Level FlightAware
05:47PM 42.4670 -85.2210 92° East 502 578 39,000  Level FlightAware
05:47PM 42.4640 -85.1050 92° East 502 578 39,000  Level FlightAware
05:48PM 42.4620 -85.0070 92° East 502 578 39,000  Level FlightAware
05:48PM 42.4590 -84.8920 92° East 501 577 39,000  Level FlightAware
05:49PM 42.4560 -84.7780 92° East 501 577 39,000  Level FlightAware
05:49PM 42.4520 -84.6650 93° East 502 578 39,000  Level FlightAware
05:50PM 42.4450 -84.5520 95° East 502 578 39,000  Level FlightAware
05:51PM 42.4390 -84.4490 94° East 501 577 39,000  Level FlightAware
05:51PM 42.4330 -84.3540 95° East 501 577 39,000  Level FlightAware
05:52PM 42.4250 -84.2230 95° East 499 574 39,000  Level FlightAware
05:52PM 42.4190 -84.1240 95° East 492 566 39,000  Level FlightAware
05:53PM 42.4120 -84.0130 95° East 487 560 39,000  Level FlightAware
05:53PM 42.4070 -83.9240 94° East 484 557 39,000 -540 Level FlightAware
05:54PM 42.3990 -83.7980 95° East 485 558 38,400 -780 Descending FlightAware
05:55PM 42.3920 -83.6900 95° East 493 567 38,000 -360 Descending FlightAware
05:55PM 42.3860 -83.5900 95° East 497 572 38,000  Level FlightAware
05:56PM 42.3790 -83.4770 95° East 497 572 38,000  Level FlightAware
05:57PM 42.3710 -83.3670 96° East 497 572 38,000  Level FlightAware
05:57PM 42.3640 -83.2570 95° East 495 570 38,000  Level FlightAware
05:58PM 42.3560 -83.1480 96° East 494 568 38,000  Level FlightAware
05:58PM 42.3490 -83.0490 95° East 493 567 38,000  Level FlightAware
05:59PM 42.3410 -82.9350 95° East 493 567 38,000  Level FlightAware
05:59PM 42.3340 -82.8330 95° East 493 567 38,000  Level FlightAware
06:00PM 42.3260 -82.7170 95° East 494 568 38,000  Level FlightAware
06:01PM 42.3180 -82.6180 96° East 494 568 38,000  Level FlightAware
06:01PM 42.3110 -82.5210 96° East 493 567 38,000 -120 Level FlightAware
06:02PM 42.3020 -82.3980 96° East 490 564 37,900 -480 Descending FlightAware
06:02PM 42.2940 -82.2890 96° East 490 564 37,400 -840 Descending FlightAware
06:03PM 42.2870 -82.1980 96° East 492 566 37,000 -360 Descending FlightAware
06:04PM 42.2790 -82.1070 97° East 494 568 37,000  Level FlightAware
06:04PM 42.2720 -82.0150 96° East 494 568 37,000  Level FlightAware
06:05PM 42.2620 -81.8830 96° East 494 568 37,000  Level FlightAware
06:05PM 42.2540 -81.7910 97° East 495 570 37,000  Level FlightAware
06:06PM 42.2450 -81.6750 96° East 494 568 37,000  Level FlightAware
06:06PM 42.2350 -81.5590 97° East 494 568 37,000  Level FlightAware
06:07PM 42.2260 -81.4460 96° East 493 567 37,000  Level FlightAware
06:08PM 42.2180 -81.3600 97° East 494 568 37,000  Level FlightAware
06:08PM 42.2090 -81.2480 96° East 495 570 37,000  Level FlightAware
06:09PM 42.2000 -81.1440 97° East 496 571 37,000  Level FlightAware
06:09PM 42.1900 -81.0260 96° East 497 572 37,000  Level FlightAware
06:10PM 42.1800 -80.9220 97° East 497 572 37,000  Level FlightAware
06:11PM 42.1710 -80.8190 97° East 498 573 37,000  Level FlightAware
06:11PM 42.1600 -80.6970 97° East 497 572 37,000  Level FlightAware
06:12PM 42.1490 -80.5800 97° East 497 572 37,000  Level FlightAware
06:12PM 42.1400 -80.4760 97° East 498 573 37,000  Level FlightAware
06:13PM 42.1290 -80.3600 97° East 498 573 37,000  Level FlightAware
06:13PM 42.1200 -80.2650 97° East 498 573 37,000  Level FlightAware
06:14PM 42.1100 -80.1560 97° East 499 574 37,000  Level FlightAware
06:15PM 42.0990 -80.0410 97° East 499 574 37,000  Level FlightAware
06:15PM 42.0880 -79.9340 98° East 498 573 37,000  Level FlightAware
06:16PM 42.0790 -79.8360 97° East 497 572 37,000  Level FlightAware
06:16PM 42.0680 -79.7320 98° East 497 572 37,000  Level FlightAware
06:17PM 42.0560 -79.6120 98° East 496 571 37,000  Level FlightAware
06:17PM 42.0460 -79.5120 98° East 494 568 37,000  Level FlightAware
06:18PM 42.0350 -79.4060 98° East 493 567 37,000  Level FlightAware
06:19PM 42.0240 -79.2960 98° East 492 566 37,000  Level FlightAware
06:19PM 42.0130 -79.1890 98° East 492 566 37,000  Level FlightAware
06:20PM 42.0010 -79.0800 98° East 492 566 37,000  Level FlightAware
06:20PM 41.9920 -78.9870 97° East 493 567 37,000  Level FlightAware
06:21PM 41.9810 -78.8900 99° East 494 568 37,000  Level FlightAware
06:22PM 41.9690 -78.7800 98° East 495 570 37,000  Level FlightAware
06:22PM 41.9550 -78.6520 98° East 495 570 37,000  Level FlightAware
06:23PM 41.9450 -78.5570 98° East 496 571 37,000  Level FlightAware
06:23PM 41.9330 -78.4470 98° East 495 570 37,000  Level FlightAware
06:24PM 41.9210 -78.3420 99° East 495 570 37,000  Level FlightAware
06:25PM 41.9100 -78.2400 98° East 495 570 37,000  Level FlightAware
06:25PM 41.8970 -78.1340 99° East 495 570 37,000  Level FlightAware
06:26PM 41.8850 -78.0280 99° East 495 570 37,000  Level FlightAware
06:26PM 41.8720 -77.9150 99° East 494 568 37,000  Level FlightAware
06:27PM 41.8530 -77.8090 103° East 497 572 37,000  Level FlightAware
06:27PM 41.8290 -77.7140 109° East 497 572 37,000  Level FlightAware
06:28PM 41.8020 -77.6120 110° East 496 571 37,000  Level FlightAware
06:29PM 41.7740 -77.5080 110° East 495 570 37,000  Level FlightAware
06:29PM 41.7460 -77.4040 110° East 495 570 37,000  Level FlightAware
06:30PM 41.7220 -77.3130 109° East 491 565 37,000  Level FlightAware
06:30PM 41.6940 -77.2080 110° East 489 563 37,000  Level FlightAware
06:31PM 41.6610 -77.0860 110° East 485 558 37,000  Level FlightAware
06:32PM 41.6330 -76.9810 110° East 484 557 37,000  Level FlightAware
06:32PM 41.6000 -76.8620 110° East 483 556 37,000  Level FlightAware
06:33PM 41.5780 -76.7800 110° East 483 556 37,000  Level FlightAware
06:34PM 41.5400 -76.6440 110° East 483 556 37,000 -420 Level FlightAware
06:34PM 41.5150 -76.5510 110° East 483 556 36,500 -900 Descending FlightAware
06:35PM 41.4900 -76.4600 110° East 484 557 36,000 -960 Descending FlightAware
06:35PM 41.4620 -76.3590 110° East 483 556 35,500 -960 Descending FlightAware
06:36PM 41.4310 -76.2480 110° East 482 555 34,900 -900 Descending FlightAware
06:37PM 41.4020 -76.1460 111° Southeast 482 555 34,400 -1,080 Descending FlightAware
06:37PM 41.3780 -76.0590 110° East 487 560 33,700 -1,320 Descending FlightAware
06:38PM 41.3480 -75.9540 111° Southeast 492 566 32,900 -1,200 Descending FlightAware
06:38PM 41.3250 -75.8720 110° East 493 567 32,400 -1,140 Descending FlightAware
06:39PM 41.2920 -75.7570 111° Southeast 496 571 31,600 -1,860 Descending FlightAware
06:40PM 41.2630 -75.6610 112° Southeast 497 572 30,200 -3,420 Descending FlightAware
06:40PM 41.2300 -75.5590 113° Southeast 502 578 27,700 -3,900 Descending FlightAware
06:41PM 41.2020 -75.4760 114° Southeast 499 574 25,800 -3,300 Descending FlightAware
06:41PM 41.1640 -75.3630 114° Southeast 483 556 23,700 -2,160 Descending FlightAware
06:42PM 41.1270 -75.2550 114° Southeast 482 555 23,000 -600 Descending FlightAware
06:43PM 41.0980 -75.1690 114° Southeast 481 554 23,000  Level FlightAware
06:43PM 41.0610 -75.0590 114° Southeast 484 557 23,000  Level FlightAware
06:44PM 41.0340 -74.9810 115° Southeast 482 555 23,000 -360 Level FlightAware
06:44PM 41.0020 -74.8770 112° Southeast 470 541 22,600 -720 Descending FlightAware
06:45PM 40.9860 -74.7850 103° East 461 531 22,200 -780 Descending FlightAware
06:45PM 40.9760 -74.6890 98° East 461 531 21,700 -1,020 Descending FlightAware
06:46PM 40.9650 -74.5860 98° East 457 526 21,000 -1,200 Descending FlightAware
06:47PM 40.9550 -74.4890 98° East 451 519 20,300 -1,080 Descending FlightAware
06:47PM 40.9450 -74.4060 99° East 442 509 19,800 -1,200 Descending FlightAware
06:48PM 40.9340 -74.3040 98° East 433 498 19,000 -660 Descending FlightAware
06:48PM 40.9220 -74.2100 100° East 384 442 19,000  Level FlightAware
06:49PM 40.9100 -74.1700 112° Southeast 362 417 19,000  Level FlightAware
06:49PM 40.8940 -74.1450 130° Southeast 350 403 19,000 -540 Level FlightAware
06:50PM 40.8583 -74.0999 136° Southeast 342 394 18,600 -1,200 Descending FlightAware ADS-B
06:50PM 40.8379 -74.0749 137° Southeast 339 390 18,100 -1,500 Descending FlightAware ADS-B (KSNC)
06:50PM 40.8204 -74.0538 137° Southeast 339 390 17,800 -1,740 Descending FlightAware ADS-B
06:51PM 40.7849 -74.0101 137° Southeast 340 391 16,800 -1,800 Descending FlightAware ADS-B
06:51PM 40.7557 -73.9735 137° Southeast 340 391 16,100 -1,560 Descending FlightAware ADS-B (KSNC)
06:52PM 40.7160 -73.9280 139° Southeast 335 386 15,300 -1,500 Descending FlightAware
06:52PM 40.7060 -73.9220 156° South 333 383 15,100 -1,380 Descending FlightAware
06:52PM 40.6530 -73.9040 166° South 324 373 14,300 -1,440 Descending FlightAware
06:53PM 40.6060 -73.8890 166° South 321 369 13,500 -1,500 Descending FlightAware
06:53PM 40.5750 -73.8830 172° South 317 365 13,000 -1,200 Descending FlightAware
06:54PM 40.5270 -73.8880 185° South 308 354 12,300 -1,500 Descending FlightAware
06:55PM 40.4640 -73.8980 187° South 306 352 11,100 -1,560 Descending FlightAware
06:55PM 40.4140 -73.9060 187° South 297 342 10,400 -1,320 Descending FlightAware
06:55PM 40.3870 -73.9100 186° South 295 339 9,900 -1,380 Descending FlightAware
06:56PM 40.3600 -73.9140 186° South 293 337 9,500 -1,440 Descending FlightAware
06:56PM 40.3410 -73.9170 187° South 293 337 9,100 -1,680 Descending FlightAware
06:57PM 40.3020 -73.9020 164° South 293 337 8,300 -1,620 Descending FlightAware
06:57PM 40.2910 -73.8860 132° Southeast 292 336 8,000 -780 Descending FlightAware
06:57PM 40.2750 -73.8580 127° Southeast 296 341 7,900 -180 Descending FlightAware
06:57PM 40.2580 -73.8290 128° Southeast 294 338 7,900  Level FlightAware
06:58PM 40.2380 -73.7950 128° Southeast 295 339 7,900  Level FlightAware
06:58PM 40.2300 -73.7770 120° Southeast 295 339 7,900 -300 Level FlightAware
06:58PM 40.2270 -73.7640 107° East 291 335 7,800 -780 Descending FlightAware
06:58PM 40.2260 -73.7520 96° East 288 331 7,700 -1,020 Descending FlightAware
06:59PM 40.2400 -73.7110 66° East 276 318 7,200 -1,200 Descending FlightAware
06:59PM 40.2490 -73.7020 37° Northeast 274 315 7,000 -660 Descending FlightAware
06:59PM 40.2720 -73.6860 28° Northeast 272 313 6,900 -180 Descending FlightAware
06:59PM 40.2920 -73.6720 28° Northeast 274 315 6,900  Level FlightAware
07:00PM 40.3150 -73.6560 28° Northeast 273 314 6,900  Level FlightAware
07:00PM 40.3390 -73.6400 27° Northeast 273 314 6,900  Level FlightAware
07:01PM 40.3680 -73.6200 28° Northeast 272 313 6,900  Level FlightAware
07:01PM 40.3900 -73.6050 27° Northeast 273 314 6,900  Level FlightAware
07:01PM 40.4100 -73.5910 28° Northeast 272 313 6,900  Level FlightAware
07:02PM 40.4340 -73.5750 27° Northeast 272 313 6,900  Level FlightAware
07:02PM 40.4550 -73.5600 29° Northeast 272 313 6,900  Level FlightAware
07:02PM 40.4800 -73.5430 27° Northeast 272 313 6,900  Level FlightAware
07:03PM 40.5050 -73.5260 27° Northeast 274 315 6,900 -360 Level FlightAware
07:03PM 40.5230 -73.5140 27° Northeast 270 311 6,700 -960 Descending FlightAware
07:03PM 40.5430 -73.5010 26° Northeast 264 304 6,400 -1,080 Descending FlightAware
07:03PM 40.5590 -73.4890 30° Northeast 261 300 6,100 -1,020 Descending FlightAware
07:04PM 40.5880 -73.4700 26° Northeast 257 296 5,700 -1,020 Descending FlightAware
07:04PM 40.6130 -73.4530 27° Northeast 251 289 5,300 -1,020 Descending FlightAware
07:05PM 40.6250 -73.4440 30° Northeast 249 287 5,100 -1,080 Descending FlightAware
07:05PM 40.6470 -73.4290 27° Northeast 245 282 4,700 -1,260 Descending FlightAware
07:05PM 40.6550 -73.4270 11° North 241 277 4,500 -1,200 Descending FlightAware
07:05PM 40.6860 -73.4340 350° North 237 273 4,000 -780 Descending FlightAware
07:06PM 40.7080 -73.4400 348° North 234 269 3,900 -180 Descending FlightAware
07:06PM 40.7290 -73.4470 346° North 228 262 3,900  Level FlightAware
07:06PM 40.7430 -73.4530 342° North 229 264 3,900 -300 Level FlightAware
07:07PM 40.7500 -73.4600 323° Northwest 227 261 3,800 -780 Descending FlightAware
07:07PM 40.7540 -73.4670 307° West 227 261 3,700 -960 Descending FlightAware
07:07PM 40.7650 -73.4880 305° West 227 261 3,400 -900 Descending FlightAware
07:07PM 40.7790 -73.5140 305° West 221 254 3,100 -720 Descending FlightAware
07:08PM 40.7890 -73.5340 303° West 212 244 2,900 -300 Descending FlightAware
07:08PM 40.8020 -73.5570 307° West 190 219 2,900 -300 Level FlightAware
07:08PM 40.8130 -73.5780 305° West 179 206 2,700 -480 Descending FlightAware
07:08PM 40.8140 -73.5830 285° West 178 205 2,700 -600 Level FlightAware
07:09PM 40.8150 -73.5900 281° West 179 206 2,600 -960 Descending FlightAware
07:09PM 40.8100 -73.6110 253° West 182 209 2,300 -1,020 Descending FlightAware
07:09PM 40.8060 -73.6190 237° Southwest 184 212 2,100 -1,020 Descending FlightAware
07:09PM 40.8010 -73.6260 227° Southwest 185 213 2,000 -480 Descending FlightAware
07:10PM 40.7870 -73.6410 219° Southwest 187 215 1,900 -180 Descending FlightAware
07:10PM 40.7740 -73.6540 217° Southwest 185 213 1,900  Level FlightAware
07:10PM 40.7570 -73.6680 212° Southwest 186 214 1,900  Level FlightAware
07:11PM 40.7440 -73.6780 210° Southwest 185 213 1,900 -180 Level FlightAware
07:11PM 40.7270 -73.6910 210° Southwest 182 209 1,800 -600 Descending FlightAware
07:11PM 40.7130 -73.7020 211° Southwest 162 186 1,500 -840 Descending FlightAware
07:12PM 40.6990 -73.7130 211° Southwest 139 160 1,200 -840 Descending FlightAware
07:12PM 40.6880 -73.7210 209° Southwest 129 148 900 -780 Descending FlightAware
07:12PM 40.6780 -73.7290 211° Southwest 127 146 700 -600 Descending FlightAware
07:13PM 40.6680 -73.7370 211° Southwest 126 145 500 -720 Descending FlightAware
07:13PM 40.6560 -73.7470 212° Southwest 128 147 200 -840 Descending FlightAware
07:13PM 40.6460 -73.7550 211° Southwest 129 148 -600 Descending FlightAware
07:14PM 40.6360 -73.7620 208° Southwest 90 104  Level FlightAware